Time;durP1;ratioP1;P1;durP2;ratioP2;P2;SDS_P1;SDS_P2;PMS_P1;PMS_P2;Temp;Humidity;BMP_temperature;BMP_pressure;BME280_temperature;BME280_humidity;BME280_pressure;Samples;Min_cycle;Max_cycle;Signal;HPM_P1;HPM_P2
2024/04/10 00:02:04;;;;;;;5.90;1.83;;;7.80;82.40;;;;;;6820894;26;20513;-65
2024/04/10 00:05:07;;;;;;;3.17;1.43;;;7.80;82.50;;;;;;6821396;26;20535;-64
2024/04/10 00:08:09;;;;;;;2.23;1.33;;;7.80;82.60;;;;;;6821480;26;20502;-64
2024/04/10 00:11:11;;;;;;;3.73;1.40;;;7.80;82.60;;;;;;6821661;26;20446;-65
2024/04/10 00:14:13;;;;;;;3.17;1.70;;;7.80;82.90;;;;;;6789718;26;20506;-64
2024/04/10 00:17:14;;;;;;;9.57;2.20;;;7.70;83.10;;;;;;6821665;26;20461;-64
2024/04/10 00:20:17;;;;;;;2.80;1.50;;;7.60;83.40;;;;;;6821259;26;20454;-64
2024/04/10 00:23:19;;;;;;;4.70;1.30;;;7.50;83.80;;;;;;6820849;26;20458;-65
2024/04/10 00:26:21;;;;;;;2.00;1.30;;;7.50;84.10;;;;;;6821243;26;20469;-65
2024/04/10 00:29:23;;;;;;;4.10;1.20;;;7.40;84.20;;;;;;6821301;26;20958;-64
2024/04/10 00:32:25;;;;;;;3.93;1.43;;;7.40;84.30;;;;;;6821530;26;20458;-64
2024/04/10 00:35:28;;;;;;;4.33;1.87;;;7.40;84.20;;;;;;6819892;26;21024;-64
2024/04/10 00:38:31;;;;;;;2.70;1.50;;;7.30;84.00;;;;;;6820937;26;20450;-67
2024/04/10 00:41:33;;;;;;;7.03;1.40;;;7.30;84.10;;;;;;6820825;26;20498;-65
2024/04/10 00:44:51;;;;;;;4.00;1.63;;;7.30;84.10;;;;;;6821132;26;20601;-65
2024/04/10 00:47:53;;;;;;;4.93;1.43;;;7.20;84.10;;;;;;6821115;26;20498;-65
2024/04/10 00:50:55;;;;;;;3.80;1.30;;;7.20;84.00;;;;;;6821015;26;20526;-65
2024/04/10 00:53:58;;;;;;;4.37;1.77;;;7.20;84.00;;;;;;6821106;26;20556;-65
2024/04/10 00:58:14;;;;;;;2.50;1.60;;;7.20;83.80;;;;;;6890136;25;20594;-65
2024/04/10 01:01:16;;;;;;;3.57;1.40;;;7.20;83.70;;;;;;6845055;25;20457;-65
2024/04/10 01:04:18;;;;;;;4.07;1.20;;;7.20;83.70;;;;;;6845331;26;20485;-66
2024/04/10 01:07:20;;;;;;;4.07;1.20;;;7.10;83.70;;;;;;6845052;25;20457;-65
2024/04/10 01:10:22;;;;;;;2.30;1.50;;;7.20;83.70;;;;;;6844271;26;20488;-65
2024/04/10 01:13:24;;;;;;;5.90;1.90;;;7.20;83.60;;;;;;6843630;25;20457;-65
2024/04/10 01:16:26;;;;;;;4.27;1.30;;;7.10;83.60;;;;;;6843713;25;20552;-65
2024/04/10 01:19:28;;;;;;;4.93;1.20;;;7.10;83.70;;;;;;6843156;26;20838;-65
2024/04/10 01:22:30;;;;;;;1.30;1.10;;;7.00;83.80;;;;;;6844096;25;20493;-65
2024/04/10 01:25:32;;;;;;;3.47;1.40;;;7.00;84.00;;;;;;6843455;25;20453;-65
2024/04/10 01:28:34;;;;;;;3.80;1.57;;;7.00;83.90;;;;;;6843207;25;20555;-65
2024/04/10 01:31:36;;;;;;;3.20;1.33;;;7.00;84.10;;;;;;6843116;26;20973;-65
2024/04/10 01:34:38;;;;;;;2.80;1.33;;;7.00;84.10;;;;;;6842631;26;20552;-65
2024/04/10 01:37:40;;;;;;;3.43;1.60;;;6.90;84.20;;;;;;6842538;26;20921;-64
2024/04/10 01:40:43;;;;;;;5.10;1.40;;;6.90;84.20;;;;;;6842609;26;20465;-65
2024/04/10 01:43:45;;;;;;;1.70;1.20;;;6.90;84.30;;;;;;6842408;25;20446;-64
2024/04/10 01:46:47;;;;;;;1.93;1.30;;;6.90;84.50;;;;;;6841939;25;20509;-65
2024/04/10 01:49:50;;;;;;;2.70;1.60;;;6.90;84.30;;;;;;6842343;26;20469;-65
2024/04/10 01:52:52;;;;;;;1.83;1.30;;;6.80;84.40;;;;;;6842076;26;20517;-64
2024/04/10 01:55:54;;;;;;;4.13;1.23;;;6.80;84.60;;;;;;6842309;25;20477;-64
2024/04/10 01:58:56;;;;;;;2.37;1.50;;;6.70;84.80;;;;;;6842386;25;20444;-64
2024/04/10 02:01:57;;;;;;;1.53;1.40;;;6.70;85.00;;;;;;6842214;26;20500;-64
2024/04/10 02:04:59;;;;;;;4.13;1.57;;;6.60;85.20;;;;;;6842510;25;20550;-65
2024/04/10 02:08:01;;;;;;;5.10;1.60;;;6.60;85.40;;;;;;6832350;25;20741;-65
2024/04/10 02:14:24;;;;;;;9.80;2.40;;;6.50;85.90;;;;;;6822508;26;20497;-64
2024/04/10 02:17:26;;;;;;;4.10;1.90;;;6.40;86.20;;;;;;6822471;26;20556;-64
2024/04/10 02:20:28;;;;;;;3.30;1.57;;;6.40;86.30;;;;;;6822147;26;20454;-64
2024/04/10 02:23:30;;;;;;;5.33;2.00;;;6.40;86.40;;;;;;6822279;26;20568;-65
2024/04/10 02:26:32;;;;;;;2.43;1.17;;;6.30;86.40;;;;;;6822293;26;20536;-65
2024/04/10 02:29:34;;;;;;;4.00;1.47;;;6.30;86.40;;;;;;6821767;26;20527;-64
2024/04/10 02:32:36;;;;;;;3.80;1.80;;;6.30;86.50;;;;;;6821979;26;20458;-65
2024/04/10 02:35:38;;;;;;;6.33;1.90;;;6.20;86.70;;;;;;6821736;26;20497;-64
2024/04/10 02:38:40;;;;;;;2.90;1.60;;;6.20;87.00;;;;;;6821899;26;20800;-65
2024/04/10 02:41:42;;;;;;;2.63;1.67;;;6.20;87.10;;;;;;6821801;26;20458;-65
2024/04/10 02:44:50;;;;;;;2.97;1.90;;;6.20;87.30;;;;;;6822066;26;20458;-65
2024/04/10 02:47:52;;;;;;;1.60;1.37;;;6.20;87.50;;;;;;6822162;26;20471;-64
2024/04/10 02:50:55;;;;;;;4.90;1.53;;;6.20;87.50;;;;;;6822317;26;20556;-63
2024/04/10 02:53:57;;;;;;;4.00;1.90;;;6.10;87.40;;;;;;6822016;26;20453;-65
2024/04/10 02:56:59;;;;;;;2.80;1.87;;;6.10;87.80;;;;;;6821459;26;20529;-64
2024/04/10 03:00:03;;;;;;;5.40;2.00;;;6.10;87.90;;;;;;6820968;26;20548;-65
2024/04/10 03:03:04;;;;;;;7.90;1.97;;;6.00;88.10;;;;;;6821035;26;20449;-64
2024/04/10 03:06:07;;;;;;;3.20;1.83;;;6.00;88.30;;;;;;6821358;26;20446;-64
2024/04/10 03:09:10;;;;;;;2.47;1.80;;;6.00;88.70;;;;;;6821303;26;20986;-65
2024/04/10 03:12:13;;;;;;;3.70;1.90;;;6.00;89.10;;;;;;6821061;26;20848;-64
2024/04/10 03:15:16;;;;;;;2.60;1.47;;;6.10;89.10;;;;;;6820568;26;20813;-63
2024/04/10 03:18:18;;;;;;;3.27;1.53;;;6.10;89.20;;;;;;6820737;26;20502;-64
2024/04/10 03:21:21;;;;;;;3.27;1.93;;;6.10;88.90;;;;;;6819050;26;20765;-63
2024/04/10 03:24:23;;;;;;;3.60;1.83;;;6.10;89.00;;;;;;6820994;26;20458;-65
2024/04/10 03:27:25;;;;;;;3.73;1.80;;;6.10;89.10;;;;;;6821404;26;20450;-64
2024/04/10 03:30:27;;;;;;;4.33;1.80;;;6.10;89.00;;;;;;6819012;26;20563;-64
2024/04/10 03:33:28;;;;;;;5.10;1.90;;;6.10;88.90;;;;;;6821587;26;20507;-64
2024/04/10 03:36:31;;;;;;;2.40;1.57;;;6.10;89.00;;;;;;6821004;26;20446;-65
2024/04/10 03:39:33;;;;;;;1.83;1.50;;;6.10;88.80;;;;;;6821636;26;20801;-64
2024/04/10 03:42:34;;;;;;;8.50;2.37;;;6.10;88.80;;;;;;6820747;26;20880;-64
2024/04/10 03:45:36;;;;;;;5.30;2.57;;;6.10;89.00;;;;;;6820955;26;20825;-64
2024/04/10 03:48:38;;;;;;;5.90;2.43;;;6.10;89.00;;;;;;6818874;26;20506;-64
2024/04/10 03:51:41;;;;;;;2.60;1.80;;;6.20;89.10;;;;;;6820523;26;20523;-64
2024/04/10 03:54:43;;;;;;;5.30;2.07;;;6.20;88.80;;;;;;6820101;26;20462;-64
2024/04/10 03:57:44;;;;;;;5.70;2.33;;;6.20;88.70;;;;;;6820174;26;20470;-64
2024/04/10 04:00:50;;;;;;;6.00;2.67;;;6.20;88.60;;;;;;6820402;26;20466;-64
2024/04/10 04:03:51;;;;;;;13.50;2.50;;;6.20;88.60;;;;;;6820133;26;20450;-64
2024/04/10 04:06:53;;;;;;;3.07;1.73;;;6.30;88.40;;;;;;6820423;26;20462;-64
2024/04/10 04:09:55;;;;;;;5.97;2.10;;;6.20;88.40;;;;;;6820123;26;20461;-65
2024/04/10 04:12:57;;;;;;;5.83;2.43;;;6.20;88.40;;;;;;6819722;26;20493;-64
2024/04/10 04:15:59;;;;;;;3.60;1.87;;;6.20;88.40;;;;;;6820294;26;20498;-64
2024/04/10 04:19:04;;;;;;;5.73;2.07;;;6.20;88.30;;;;;;6819851;26;20834;-64
2024/04/10 04:22:06;;;;;;;5.70;2.30;;;6.10;88.40;;;;;;6820096;26;20458;-64
2024/04/10 04:25:07;;;;;;;7.37;1.87;;;6.20;88.50;;;;;;6820539;26;20482;-64
2024/04/10 04:28:09;;;;;;;3.23;1.90;;;6.10;88.30;;;;;;6820249;26;20445;-64
2024/04/10 04:31:14;;;;;;;3.47;2.10;;;6.10;88.30;;;;;;6819331;26;20458;-64
2024/04/10 04:34:17;;;;;;;4.77;2.20;;;6.00;88.50;;;;;;6820127;26;20454;-65
2024/04/10 04:37:19;;;;;;;8.23;2.13;;;6.00;88.60;;;;;;6821237;26;20450;-64
2024/04/10 04:40:20;;;;;;;4.67;2.07;;;6.00;88.60;;;;;;6820737;26;20862;-64
2024/04/10 04:43:23;;;;;;;3.53;2.10;;;6.00;88.80;;;;;;6820093;26;20446;-64
2024/04/10 04:46:25;;;;;;;7.83;2.73;;;6.00;88.90;;;;;;6819211;26;20446;-64
2024/04/10 04:49:27;;;;;;;4.57;2.03;;;6.00;88.90;;;;;;6818516;26;20492;-64
2024/04/10 04:52:29;;;;;;;6.23;2.50;;;6.00;89.20;;;;;;6818120;26;20541;-65
2024/04/10 04:55:31;;;;;;;4.40;2.00;;;6.00;89.30;;;;;;6817140;26;20962;-65
2024/04/10 04:58:33;;;;;;;4.30;2.30;;;6.00;89.60;;;;;;6819182;26;20453;-63
2024/04/10 05:01:34;;;;;;;5.43;2.00;;;6.00;89.60;;;;;;6819713;26;20465;-64
2024/04/10 05:04:57;;;;;;;4.00;2.30;;;6.00;89.70;;;;;;6819477;26;20462;-64
2024/04/10 05:07:59;;;;;;;5.67;2.07;;;6.00;89.60;;;;;;6821890;26;20439;-64
2024/04/10 05:11:08;;;;;;;9.70;2.40;;;6.10;89.70;;;;;;6819239;26;20521;-64
2024/04/10 05:14:11;;;;;;;6.57;1.90;;;6.10;89.70;;;;;;6819392;26;20506;-64
2024/04/10 05:17:13;;;;;;;2.90;1.93;;;6.20;89.70;;;;;;6819513;26;20453;-64
2024/04/10 05:20:15;;;;;;;3.53;1.67;;;6.20;89.60;;;;;;6819655;26;20556;-64
2024/04/10 05:23:19;;;;;;;4.57;1.93;;;6.30;89.50;;;;;;6817946;26;20455;-63
2024/04/10 05:26:22;;;;;;;9.20;2.47;;;6.40;89.30;;;;;;6819009;26;20937;-63
2024/04/10 05:29:24;;;;;;;7.43;2.07;;;6.50;89.10;;;;;;6818740;26;20969;-64
2024/04/10 05:32:29;;;;;;;5.80;2.67;;;6.50;89.00;;;;;;6817791;26;20462;-63
2024/04/10 05:35:31;;;;;;;7.27;2.40;;;6.60;89.10;;;;;;6815548;26;20458;-64
2024/04/10 05:38:34;;;;;;;13.53;2.60;;;6.60;89.10;;;;;;6817245;26;20493;-66
2024/04/10 05:41:36;;;;;;;8.43;2.07;;;6.70;89.00;;;;;;6819053;26;20513;-65
2024/04/10 05:44:38;;;;;;;5.23;2.20;;;6.80;89.00;;;;;;6821239;26;20454;-65
2024/04/10 05:47:42;;;;;;;4.70;2.20;;;6.90;88.70;;;;;;6826184;26;20450;-65
2024/04/10 05:50:44;;;;;;;5.17;1.97;;;7.00;88.30;;;;;;6829870;26;20446;-64
2024/04/10 05:53:47;;;;;;;5.30;2.23;;;7.20;88.20;;;;;;6825557;26;20446;-64
2024/04/10 05:56:50;;;;;;;7.33;2.20;;;7.30;87.80;;;;;;6826991;26;20474;-64
2024/04/10 05:59:52;;;;;;;4.00;2.10;;;7.60;87.10;;;;;;6827871;26;20457;-64
2024/04/10 06:02:54;;;;;;;6.67;2.07;;;7.70;86.20;;;;;;6822214;26;20553;-62
2024/04/10 06:05:58;;;;;;;4.30;2.10;;;7.80;85.20;;;;;;6821833;26;20446;-64
2024/04/10 06:08:59;;;;;;;7.80;2.17;;;7.90;85.30;;;;;;6821507;26;20454;-64
2024/04/10 06:12:04;;;;;;;8.97;2.80;;;8.10;84.80;;;;;;6821533;26;20517;-64
2024/04/10 06:15:06;;;;;;;4.70;2.07;;;8.30;83.90;;;;;;6821383;26;20446;-64
2024/04/10 06:18:08;;;;;;;6.40;1.90;;;8.40;82.90;;;;;;6821537;26;20505;-63
2024/04/10 06:21:10;;;;;;;4.90;2.17;;;8.60;82.50;;;;;;6820952;26;20457;-63
2024/04/10 06:24:13;;;;;;;4.60;2.30;;;8.80;81.20;;;;;;6821432;26;20503;-64
2024/04/10 06:27:15;;;;;;;10.33;2.87;;;8.80;80.80;;;;;;6819747;26;20465;-64
2024/04/10 06:30:17;;;;;;;9.13;2.40;;;8.90;80.40;;;;;;6821819;26;20458;-65
2024/04/10 06:33:19;;;;;;;6.37;2.30;;;9.00;80.50;;;;;;6820457;26;20454;-64
2024/04/10 06:36:21;;;;;;;7.40;2.80;;;9.10;79.60;;;;;;6821562;26;20442;-65
2024/04/10 06:39:23;;;;;;;5.30;3.00;;;9.10;79.10;;;;;;6820958;26;20653;-65
2024/04/10 06:42:25;;;;;;;7.50;2.30;;;9.20;78.90;;;;;;6820295;26;20458;-65
2024/04/10 06:45:26;;;;;;;8.43;2.47;;;9.30;78.60;;;;;;6821672;26;20486;-64
2024/04/10 06:48:29;;;;;;;5.90;2.30;;;9.30;77.90;;;;;;6820784;26;20474;-64
2024/04/10 06:51:32;;;;;;;5.50;2.50;;;9.30;77.80;;;;;;6819920;26;20427;-63
2024/04/10 06:54:34;;;;;;;8.60;2.50;;;9.50;76.90;;;;;;6820668;26;20649;-64
2024/04/10 06:57:36;;;;;;;6.73;2.30;;;9.50;77.20;;;;;;6820605;26;20565;-64
2024/04/10 07:00:38;;;;;;;8.63;2.77;;;9.60;76.90;;;;;;6821324;26;20537;-64
2024/04/10 07:03:42;;;;;;;11.87;2.23;;;9.80;76.40;;;;;;6826208;26;20567;-63
2024/04/10 07:06:44;;;;;;;4.70;2.60;;;10.10;75.80;;;;;;6821097;26;20502;-64
2024/04/10 07:09:48;;;;;;;6.80;2.33;;;10.20;73.10;;;;;;6822022;26;20501;-64
2024/04/10 07:12:50;;;;;;;9.87;2.70;;;10.30;72.60;;;;;;6822558;26;20462;-66
2024/04/10 07:16:02;;;;;;;7.50;2.10;;;10.20;72.60;;;;;;6821552;26;20442;-66
2024/04/10 07:19:05;;;;;;;5.77;1.70;;;10.10;72.80;;;;;;6821439;26;20458;-65
2024/04/10 07:22:07;;;;;;;6.90;2.63;;;10.00;72.90;;;;;;6821758;26;20804;-65
2024/04/10 07:25:09;;;;;;;7.23;2.57;;;10.00;72.60;;;;;;6822143;26;20930;-64
2024/04/10 07:28:11;;;;;;;5.83;2.13;;;10.10;72.20;;;;;;6822459;26;20493;-64
2024/04/10 07:31:19;;;;;;;7.30;2.00;;;10.10;72.00;;;;;;6824135;26;20502;-64
2024/04/10 07:34:21;;;;;;;8.90;2.37;;;10.20;72.40;;;;;;6820190;26;20442;-64
2024/04/10 07:37:23;;;;;;;9.60;2.53;;;10.40;71.20;;;;;;6820181;26;20582;-64
2024/04/10 07:40:25;;;;;;;11.70;2.90;;;10.50;72.10;;;;;;6817558;26;20458;-65
2024/04/10 07:43:27;;;;;;;6.30;2.10;;;10.60;71.70;;;;;;6819719;26;20494;-64
2024/04/10 07:46:29;;;;;;;11.93;2.73;;;10.90;71.20;;;;;;6819880;26;20458;-65
2024/04/10 07:49:31;;;;;;;7.77;2.13;;;11.10;68.30;;;;;;6820624;26;20450;-64
2024/04/10 07:52:33;;;;;;;6.70;1.90;;;11.20;67.50;;;;;;6820123;26;20458;-65
2024/04/10 07:55:35;;;;;;;4.63;2.40;;;11.20;67.60;;;;;;6822664;26;20812;-64
2024/04/10 07:58:37;;;;;;;18.13;2.90;;;11.30;67.60;;;;;;6822483;26;20506;-65
2024/04/10 08:01:39;;;;;;;5.47;2.37;;;11.40;67.40;;;;;;6823466;26;20454;-66
2024/04/10 08:04:41;;;;;;;5.10;2.30;;;11.60;67.70;;;;;;6822669;26;20462;-64
2024/04/10 08:07:43;;;;;;;6.40;2.10;;;11.70;67.80;;;;;;6822600;26;20458;-65
2024/04/10 08:10:47;;;;;;;8.67;2.60;;;11.80;67.00;;;;;;6821371;26;20556;-64
2024/04/10 08:13:49;;;;;;;8.80;2.50;;;12.10;66.80;;;;;;6819547;26;20514;-65
2024/04/10 08:16:54;;;;;;;6.67;2.53;;;12.20;65.80;;;;;;6819940;26;20494;-65
2024/04/10 08:19:56;;;;;;;10.17;3.07;;;12.10;65.20;;;;;;6819891;26;20514;-65
2024/04/10 08:22:58;;;;;;;6.47;2.37;;;12.20;65.40;;;;;;6818811;26;20748;-64
2024/04/10 08:26:08;;;;;;;8.07;2.77;;;12.30;65.30;;;;;;6818290;26;20465;-66
2024/04/10 08:29:10;;;;;;;12.93;2.73;;;12.30;65.40;;;;;;6818498;26;20829;-67
2024/04/10 08:32:12;;;;;;;5.77;2.27;;;12.40;65.10;;;;;;6816669;26;20556;-66
2024/04/10 08:35:14;;;;;;;7.07;2.30;;;12.60;65.80;;;;;;6818288;26;20466;-65
2024/04/10 08:38:16;;;;;;;4.47;2.80;;;12.90;64.10;;;;;;6818191;26;20446;-64
2024/04/10 08:41:19;;;;;;;8.00;2.73;;;13.10;63.80;;;;;;6818317;26;20518;-66
2024/04/10 08:44:24;;;;;;;6.80;2.73;;;13.30;61.00;;;;;;6818847;26;20442;-65
2024/04/10 08:47:27;;;;;;;5.37;2.87;;;13.20;59.70;;;;;;6818525;26;20660;-65
2024/04/10 08:50:31;;;;;;;5.80;2.50;;;13.20;59.50;;;;;;6819848;26;20496;-65
2024/04/10 08:53:35;;;;;;;6.93;2.77;;;13.30;60.50;;;;;;6818744;26;20745;-65
2024/04/10 08:56:37;;;;;;;9.20;2.60;;;13.40;58.90;;;;;;6820131;26;20462;-66
2024/04/10 08:59:38;;;;;;;8.43;3.50;;;13.20;59.10;;;;;;6826981;26;20466;-67
2024/04/10 09:02:40;;;;;;;10.45;3.50;;;13.50;58.30;;;;;;6816774;26;20355;-67
2024/04/10 09:05:42;;;;;;;8.30;3.20;;;13.80;58.00;;;;;;6819932;26;20276;-65
2024/04/10 09:08:54;;;;;;;9.43;2.90;;;13.70;57.60;;;;;;6821849;26;20474;-67
2024/04/10 09:11:56;;;;;;;8.67;3.20;;;13.80;58.50;;;;;;6823248;26;20828;-67
2024/04/10 09:15:09;;;;;;;6.63;2.73;;;13.80;56.60;;;;;;6823263;26;20458;-66
2024/04/10 09:18:11;;;;;;;6.10;2.30;;;13.70;57.10;;;;;;6825104;26;20446;-67
2024/04/10 09:21:14;;;;;;;5.90;3.10;;;13.60;56.00;;;;;;6829622;26;20469;-66
2024/04/10 09:24:24;;;;;;;6.90;2.40;;;13.70;57.30;;;;;;6829790;26;20493;-66
2024/04/10 09:27:26;;;;;;;2.60;2.20;;;13.70;56.70;;;;;;6830232;26;20660;-65
2024/04/10 09:30:28;;;;;;;4.67;2.30;;;13.70;57.40;;;;;;6829793;26;20446;-65
2024/04/10 09:33:32;;;;;;;5.20;3.03;;;13.60;57.90;;;;;;6828854;26;20598;-64
2024/04/10 09:36:36;;;;;;;5.50;3.07;;;13.60;56.20;;;;;;6830198;26;20449;-65
2024/04/10 09:39:38;;;;;;;6.83;2.90;;;13.70;56.40;;;;;;6829794;26;20556;-65
2024/04/10 09:42:46;;;;;;;6.67;2.97;;;13.90;55.80;;;;;;6829201;26;20450;-64
2024/04/10 09:45:56;;;;;;;4.93;2.60;;;14.10;56.30;;;;;;6823574;26;20612;-64
2024/04/10 09:49:07;;;;;;;6.43;2.83;;;14.30;56.20;;;;;;6823168;26;20582;-65
2024/04/10 09:52:10;;;;;;;4.83;2.57;;;14.20;56.30;;;;;;6823889;26;20465;-65
2024/04/10 09:55:14;;;;;;;6.73;3.20;;;14.10;57.00;;;;;;6823350;26;20490;-66
2024/04/10 09:58:16;;;;;;;5.73;2.27;;;14.20;55.40;;;;;;6823881;26;20937;-65
2024/04/10 10:01:25;;;;;;;9.00;3.20;;;14.20;55.00;;;;;;6820440;26;20370;-64
2024/04/10 10:04:37;;;;;;;9.47;2.77;;;14.40;54.80;;;;;;6821260;26;20934;-64
2024/04/10 10:07:39;;;;;;;5.37;2.73;;;14.50;54.30;;;;;;6818965;26;20516;-64
2024/04/10 10:10:54;;;;;;;8.23;3.30;;;14.60;53.40;;;;;;6821640;26;20458;-64
2024/04/10 10:14:03;;;;;;;6.80;2.70;;;14.60;52.80;;;;;;6821130;26;20454;-64
2024/04/10 10:17:08;;;;;;;4.50;2.53;;;14.60;52.40;;;;;;6823606;26;20450;-64
2024/04/10 10:20:19;;;;;;;7.30;2.77;;;14.40;54.20;;;;;;6821620;26;20502;-63
2024/04/10 10:23:24;;;;;;;3.47;2.13;;;14.30;53.70;;;;;;6821560;26;20605;-63
2024/04/10 10:26:27;;;;;;;5.60;2.50;;;14.50;52.60;;;;;;6827393;26;20511;-64
2024/04/10 10:29:31;;;;;;;6.67;2.90;;;14.60;53.60;;;;;;6822274;26;20501;-65
2024/04/10 10:32:33;;;;;;;6.50;2.73;;;14.60;53.20;;;;;;6821088;26;20521;-64
2024/04/10 10:35:35;;;;;;;4.70;3.20;;;14.50;53.30;;;;;;6821035;26;20544;-64
2024/04/10 10:38:37;;;;;;;6.23;2.40;;;14.40;53.30;;;;;;6821155;26;20933;-65
2024/04/10 10:41:40;;;;;;;5.90;2.93;;;14.30;53.00;;;;;;6821501;26;20506;-65
2024/04/10 10:44:42;;;;;;;7.50;3.53;;;14.30;53.50;;;;;;6821347;26;20917;-66
2024/04/10 10:47:45;;;;;;;7.20;2.47;;;14.60;53.60;;;;;;6820857;26;20451;-66
2024/04/10 10:50:54;;;;;;;6.07;2.80;;;14.90;54.30;;;;;;6821085;26;20454;-66
2024/04/10 10:53:58;;;;;;;3.30;2.67;;;15.40;51.50;;;;;;6821012;26;20482;-65
2024/04/10 10:57:04;;;;;;;5.00;2.27;;;15.40;51.50;;;;;;6820918;26;20547;-65
2024/04/10 11:00:17;;;;;;;3.83;2.80;;;15.50;50.70;;;;;;6821445;26;20551;-65
2024/04/10 11:03:19;;;;;;;5.93;2.70;;;15.70;50.60;;;;;;6819798;26;20537;-64
2024/04/10 11:06:31;;;;;;;5.43;2.67;;;15.90;49.70;;;;;;6820913;26;20500;-64
2024/04/10 11:09:33;;;;;;;4.43;2.77;;;16.10;48.80;;;;;;6819911;26;20446;-65
2024/04/10 11:12:35;;;;;;;5.20;2.57;;;16.30;47.20;;;;;;6822142;26;20454;-64
2024/04/10 11:15:50;;;;;;;6.00;3.30;;;16.40;47.20;;;;;;6825692;26;20625;-64
2024/04/10 11:18:52;;;;;;;3.87;2.23;;;16.70;46.90;;;;;;6826535;26;20518;-65
2024/04/10 11:21:54;;;;;;;3.33;2.40;;;16.70;44.70;;;;;;6829893;26;20530;-65
2024/04/10 11:24:56;;;;;;;2.93;2.20;;;16.90;43.60;;;;;;6832139;26;20445;-64
2024/04/10 11:27:58;;;;;;;5.00;2.70;;;16.90;41.70;;;;;;6830801;26;20446;-65
2024/04/10 11:31:00;;;;;;;5.43;2.63;;;17.10;43.40;;;;;;6827801;26;20521;-64
2024/04/10 11:34:02;;;;;;;4.83;2.30;;;17.20;43.80;;;;;;6820256;26;20586;-64
2024/04/10 11:37:04;;;;;;;3.20;2.47;;;17.00;43.40;;;;;;6819580;26;20808;-64
2024/04/10 11:40:13;;;;;;;2.63;2.43;;;17.20;42.40;;;;;;6817249;26;20832;-64
2024/04/10 11:43:14;;;;;;;4.20;3.00;;;17.30;41.20;;;;;;6818890;26;20510;-64
2024/04/10 11:46:18;;;;;;;5.87;2.40;;;17.50;43.10;;;;;;6827429;26;20458;-65
2024/04/10 11:49:21;;;;;;;3.57;2.30;;;17.60;40.90;;;;;;6819638;26;20981;-65
2024/04/10 11:52:23;;;;;;;4.00;2.50;;;17.70;41.90;;;;;;6818791;26;20447;-65
2024/04/10 11:55:27;;;;;;;4.40;2.50;;;17.90;40.80;;;;;;6819305;26;20807;-65
2024/04/10 11:58:29;;;;;;;4.10;2.60;;;18.10;41.50;;;;;;6819218;26;20462;-65
2024/04/10 12:01:31;;;;;;;4.00;2.80;;;18.20;40.90;;;;;;6819195;26;20525;-65
2024/04/10 12:04:33;;;;;;;6.13;2.83;;;18.00;41.90;;;;;;6819262;26;20449;-64
2024/04/10 12:07:35;;;;;;;5.50;2.60;;;17.90;42.90;;;;;;6819512;26;20525;-65
2024/04/10 12:10:37;;;;;;;3.73;2.87;;;17.70;42.00;;;;;;6818200;26;20461;-64
2024/04/10 12:13:40;;;;;;;4.77;2.70;;;17.20;41.90;;;;;;6818332;26;20914;-65
2024/04/10 12:16:42;;;;;;;4.03;2.83;;;16.90;41.10;;;;;;6816476;26;20493;-64
2024/04/10 12:19:44;;;;;;;7.77;2.63;;;17.00;42.30;;;;;;6817218;26;20462;-63
2024/04/10 12:22:46;;;;;;;2.83;2.30;;;17.10;40.50;;;;;;6818700;26;20492;-64
2024/04/10 12:25:49;;;;;;;5.93;2.93;;;16.80;41.40;;;;;;6818049;26;20465;-65
2024/04/10 12:28:51;;;;;;;5.23;2.53;;;16.90;41.40;;;;;;6818610;26;20548;-64
2024/04/10 12:31:53;;;;;;;8.33;2.83;;;16.90;41.20;;;;;;6818522;26;20991;-64
2024/04/10 12:38:02;;;;;;;2.87;2.50;;;16.40;42.80;;;;;;6818417;26;20812;-65
2024/04/10 12:38:16;;;;;;;4.97;2.77;;;16.00;43.90;;;;;;6821313;26;20833;-64
2024/04/10 12:41:18;;;;;;;4.40;2.70;;;15.70;43.50;;;;;;6822632;26;20506;-64
2024/04/10 12:44:23;;;;;;;6.00;2.90;;;15.50;43.90;;;;;;6825079;26;20481;-65
2024/04/10 12:47:25;;;;;;;4.43;2.80;;;15.40;44.90;;;;;;6825184;26;20447;-66
2024/04/10 12:50:27;;;;;;;5.57;2.80;;;15.50;44.20;;;;;;6822025;26;20434;-65
2024/04/10 12:53:29;;;;;;;3.00;2.63;;;15.50;44.90;;;;;;6823478;26;20486;-65
2024/04/10 12:56:34;;;;;;;5.23;2.60;;;15.80;44.60;;;;;;6822964;26;20773;-65
2024/04/10 12:59:36;;;;;;;4.77;2.90;;;16.30;43.10;;;;;;6820399;26;20457;-65
2024/04/10 13:02:38;;;;;;;3.93;2.80;;;16.60;41.20;;;;;;6822117;26;20450;-65
2024/04/10 13:05:40;;;;;;;5.57;2.73;;;16.90;42.80;;;;;;6821826;26;20466;-65
2024/04/10 13:08:42;;;;;;;2.57;2.37;;;17.40;40.60;;;;;;6820878;26;20966;-65
2024/04/10 13:11:43;;;;;;;6.27;2.47;;;17.80;38.80;;;;;;6820766;26;20457;-65
2024/04/10 13:14:45;;;;;;;4.77;2.43;;;18.30;38.00;;;;;;6821491;26;20454;-65
2024/04/10 13:17:49;;;;;;;3.30;2.40;;;18.50;38.60;;;;;;6818706;26;20487;-64
2024/04/10 13:20:55;;;;;;;5.73;2.93;;;18.80;37.90;;;;;;6817960;26;20502;-65
2024/04/10 13:23:58;;;;;;;4.03;2.70;;;18.70;36.50;;;;;;6818444;26;20491;-64
2024/04/10 13:27:01;;;;;;;3.03;2.40;;;18.50;37.80;;;;;;6822649;26;20264;-64
2024/04/10 13:30:04;;;;;;;3.72;2.30;;;18.20;38.80;;;;;;6815762;26;20375;-63
2024/04/10 13:33:06;;;;;;;5.83;2.73;;;18.20;38.30;;;;;;6816502;26;20280;-64
2024/04/10 13:36:16;;;;;;;3.00;2.70;;;18.00;38.90;;;;;;6816896;26;20733;-64
2024/04/10 13:39:17;;;;;;;3.43;2.80;;;18.10;39.30;;;;;;6817123;26;20514;-64
2024/04/10 13:42:19;;;;;;;4.57;2.47;;;18.20;39.70;;;;;;6817951;26;20499;-63
2024/04/10 13:45:21;;;;;;;4.30;2.43;;;18.20;40.20;;;;;;6816679;26;20457;-63
2024/04/10 13:48:23;;;;;;;2.97;2.77;;;18.20;40.50;;;;;;6814370;26;20510;-64
2024/04/10 13:51:25;;;;;;;2.83;2.37;;;18.20;39.60;;;;;;6816067;26;20470;-65
2024/04/10 13:54:28;;;;;;;3.90;2.40;;;18.20;40.50;;;;;;6814732;26;20499;-64
2024/04/10 13:57:31;;;;;;;4.30;2.70;;;18.40;41.00;;;;;;6815839;26;20619;-64
2024/04/10 14:00:35;;;;;;;3.30;2.50;;;18.60;41.20;;;;;;6817185;26;20447;-65
2024/04/10 14:03:38;;;;;;;4.60;2.80;;;18.90;40.00;;;;;;6817028;26;20503;-64
2024/04/10 14:06:40;;;;;;;3.63;2.90;;;19.10;39.50;;;;;;6820685;26;20518;-64
2024/04/10 14:09:42;;;;;;;4.53;2.40;;;19.30;38.20;;;;;;6819716;26;20578;-64
2024/04/10 14:12:44;;;;;;;2.93;2.73;;;19.40;37.40;;;;;;6819958;26;20280;-64
2024/04/10 14:15:56;;;;;;;6.43;3.17;;;19.40;37.70;;;;;;6820354;26;20222;-66
2024/04/10 14:18:57;;;;;;;2.93;2.70;;;19.30;39.50;;;;;;6820030;26;20292;-66
2024/04/10 14:21:59;;;;;;;7.43;2.60;;;19.20;40.40;;;;;;6820478;26;20221;-66
2024/04/10 14:25:01;;;;;;;2.70;2.43;;;19.00;41.00;;;;;;6820671;26;20454;-65
2024/04/10 14:28:03;;;;;;;5.23;2.77;;;18.70;40.60;;;;;;6819255;26;20617;-66
2024/04/10 14:31:07;;;;;;;2.50;2.30;;;18.40;41.50;;;;;;6818788;26;20457;-66
2024/04/10 14:34:09;;;;;;;5.13;2.77;;;18.50;41.70;;;;;;6820059;26;20518;-66
2024/04/10 14:37:11;;;;;;;8.07;3.20;;;18.60;40.00;;;;;;6820371;26;20522;-66
2024/04/10 14:40:13;;;;;;;6.57;2.50;;;18.10;41.40;;;;;;6821752;26;20937;-66
2024/04/10 14:43:15;;;;;;;4.67;3.00;;;18.00;41.80;;;;;;6821091;26;20984;-66
2024/04/10 14:46:18;;;;;;;4.33;2.97;;;17.70;42.30;;;;;;6822122;26;20538;-66
2024/04/10 14:49:22;;;;;;;4.20;2.87;;;17.60;41.90;;;;;;6823491;26;20454;-66
2024/04/10 14:52:24;;;;;;;3.27;2.70;;;17.70;41.40;;;;;;6822317;26;20966;-65
2024/04/10 14:55:26;;;;;;;4.23;2.60;;;17.90;41.30;;;;;;6824691;26;20494;-66
2024/04/10 14:58:29;;;;;;;5.37;2.87;;;18.00;38.90;;;;;;6826107;26;20513;-66
2024/04/10 15:01:30;;;;;;;2.55;2.35;;;17.90;40.30;;;;;;6826883;26;20660;-65
2024/04/10 15:04:32;;;;;;;3.67;2.40;;;18.10;39.10;;;;;;6831967;26;20229;-65
2024/04/10 15:07:35;;;;;;;3.10;2.70;;;18.20;38.50;;;;;;6828079;26;20469;-65
2024/04/10 15:10:41;;;;;;;11.50;3.40;;;18.30;39.00;;;;;;6829601;26;20839;-65
2024/04/10 15:13:43;;;;;;;4.03;2.60;;;18.40;38.50;;;;;;6833212;26;20936;-64
2024/04/10 15:16:45;;;;;;;4.20;2.77;;;18.30;38.20;;;;;;6831666;26;20813;-64
2024/04/10 15:19:48;;;;;;;2.13;2.03;;;18.20;37.80;;;;;;6828797;26;20506;-64
2024/04/10 15:22:50;;;;;;;3.17;2.37;;;18.30;38.20;;;;;;6830890;26;20426;-64
2024/04/10 15:25:56;;;;;;;3.53;2.60;;;18.10;38.20;;;;;;6830091;26;20457;-66
2024/04/10 15:28:58;;;;;;;6.27;2.60;;;18.00;39.10;;;;;;6826535;26;20458;-66
2024/04/10 15:32:00;;;;;;;3.97;2.70;;;18.00;40.00;;;;;;6822008;26;20450;-64
2024/04/10 15:35:03;;;;;;;2.90;2.70;;;18.20;38.50;;;;;;6822374;26;20513;-65
2024/04/10 15:38:05;;;;;;;4.63;2.80;;;18.20;40.00;;;;;;6820903;26;20454;-65
2024/04/10 15:41:08;;;;;;;3.20;2.47;;;18.30;40.60;;;;;;6821618;26;20458;-65
2024/04/10 15:44:10;;;;;;;3.67;2.10;;;18.30;39.00;;;;;;6821165;26;20458;-64
2024/04/10 15:47:12;;;;;;;3.23;2.47;;;18.30;37.50;;;;;;6818698;26;20461;-65
2024/04/10 15:50:14;;;;;;;2.43;2.23;;;18.20;37.00;;;;;;6819932;26;20953;-66
2024/04/10 15:53:18;;;;;;;2.83;2.50;;;18.20;37.10;;;;;;6820601;26;20930;-66
2024/04/10 15:56:20;;;;;;;5.57;2.90;;;18.30;36.60;;;;;;6819057;26;20583;-65
2024/04/10 15:59:22;;;;;;;2.30;2.10;;;18.40;38.10;;;;;;6822024;26;20508;-65
2024/04/10 16:02:24;;;;;;;3.40;3.10;;;18.60;37.40;;;;;;6828042;26;20462;-66